Time;durP1;ratioP1;P1;durP2;ratioP2;P2;SDS_P1;SDS_P2;PMS_P1;PMS_P2;Temp;Humidity;BMP_temperature;BMP_pressure;BME280_temperature;BME280_humidity;BME280_pressure;Samples;Min_cycle;Max_cycle;Signal;HPM_P1;HPM_P2
2021/09/05 00:00:43;;;;;;;7.47;6.87;;;13.50;99.90;;;;;;5073139;28;20496;-90
2021/09/05 00:03:09;;;;;;;7.83;7.03;;;13.60;99.90;;;;;;5040595;28;20187;-90
2021/09/05 00:05:34;;;;;;;7.60;6.90;;;13.60;99.90;;;;;;5035926;28;20260;-89
2021/09/05 00:08:00;;;;;;;7.53;6.83;;;13.50;99.90;;;;;;5041851;28;20255;-89
2021/09/05 00:10:28;;;;;;;7.70;7.00;;;13.40;99.90;;;;;;5039819;28;20180;-89
2021/09/05 00:12:56;;;;;;;9.33;7.00;;;13.30;99.90;;;;;;5070974;28;20203;-89
2021/09/05 00:15:22;;;;;;;7.37;6.50;;;13.30;99.90;;;;;;5057699;28;20513;-89
2021/09/05 00:17:50;;;;;;;7.43;6.70;;;13.30;99.90;;;;;;5057511;28;20929;-89
2021/09/05 00:20:16;;;;;;;7.40;6.70;;;13.30;99.90;;;;;;5068158;28;20544;-89
2021/09/05 00:22:44;;;;;;;7.30;6.70;;;13.20;99.90;;;;;;5043863;28;20464;-89
2021/09/05 00:25:10;;;;;;;7.70;7.00;;;13.30;99.90;;;;;;5073430;28;20784;-88
2021/09/05 00:27:36;;;;;;;7.70;6.97;;;13.30;99.90;;;;;;5053225;28;20435;-89
2021/09/05 00:30:05;;;;;;;7.97;6.90;;;13.40;99.90;;;;;;5057515;28;20241;-89
2021/09/05 00:32:30;;;;;;;8.57;7.47;;;13.50;99.90;;;;;;5067861;28;20200;-88
2021/09/05 00:34:56;;;;;;;7.13;6.47;;;13.50;99.90;;;;;;5053918;28;20451;-91
2021/09/05 00:37:21;;;;;;;7.23;6.53;;;13.50;99.90;;;;;;5038381;28;21474;-91
2021/09/05 00:39:50;;;;;;;7.27;6.57;;;13.40;99.90;;;;;;5056004;28;20242;-90
2021/09/05 00:45:13;;;;;;;7.60;6.90;;;13.30;99.90;;;;;;5044692;28;20446;-91
2021/09/05 00:47:39;;;;;;;7.40;6.60;;;13.30;99.90;;;;;;5042361;28;20453;-91
2021/09/05 00:50:05;;;;;;;8.30;6.20;;;13.20;99.90;;;;;;5056417;28;20176;-90
2021/09/05 00:52:33;;;;;;;8.03;7.20;;;13.10;99.90;;;;;;5071566;28;20198;-91
2021/09/05 00:54:58;;;;;;;6.57;5.97;;;13.10;99.90;;;;;;5072347;28;20441;-90
2021/09/05 00:57:24;;;;;;;7.50;6.67;;;13.00;99.90;;;;;;5042092;28;20811;-90
2021/09/05 00:59:50;;;;;;;9.90;7.67;;;13.00;99.90;;;;;;5053101;28;20255;-91
2021/09/05 01:02:16;;;;;;;7.63;6.87;;;13.00;99.90;;;;;;5057923;28;20187;-90
2021/09/05 01:04:45;;;;;;;8.23;7.17;;;13.00;99.90;;;;;;5057718;28;20215;-90
2021/09/05 01:07:11;;;;;;;11.73;7.77;;;13.00;99.90;;;;;;5069202;28;20184;-90
2021/09/05 01:09:37;;;;;;;12.50;9.57;;;12.90;99.90;;;;;;5040241;28;20476;-90
2021/09/05 01:12:04;;;;;;;8.90;7.37;;;12.90;99.90;;;;;;5073322;28;20441;-90
2021/09/05 01:14:29;;;;;;;8.97;7.60;;;12.90;99.90;;;;;;5040758;28;20445;-91
2021/09/05 01:16:55;;;;;;;8.93;7.73;;;13.00;99.90;;;;;;5056976;28;20994;-90
2021/09/05 01:19:22;;;;;;;8.23;6.90;;;13.00;99.90;;;;;;5055270;28;20226;-91
2021/09/05 01:21:51;;;;;;;7.30;6.57;;;13.00;99.90;;;;;;5041380;28;20175;-91
2021/09/05 01:24:19;;;;;;;7.40;6.70;;;12.80;99.90;;;;;;5057265;28;20905;-91
2021/09/05 01:26:49;;;;;;;7.37;6.60;;;12.70;99.90;;;;;;5044641;28;20438;-90
2021/09/05 01:29:17;;;;;;;8.83;6.53;;;12.70;99.90;;;;;;5026335;28;20464;-90
2021/09/05 01:31:55;;;;;;;8.27;7.47;;;12.60;99.90;;;;;;5069290;28;20520;-90
2021/09/05 01:34:24;;;;;;;8.30;7.53;;;12.60;99.90;;;;;;5042321;28;20582;-91
2021/09/05 01:36:54;;;;;;;9.53;7.37;;;12.80;99.90;;;;;;5038746;28;20472;-90
2021/09/05 01:39:22;;;;;;;9.20;8.23;;;12.90;99.90;;;;;;5058728;28;20535;-90
2021/09/05 01:41:48;;;;;;;8.63;7.87;;;12.80;99.90;;;;;;5074166;28;20658;-91
2021/09/05 01:44:20;;;;;;;8.10;7.30;;;12.80;99.90;;;;;;5059216;28;20445;-91
2021/09/05 01:46:46;;;;;;;8.30;7.50;;;12.90;99.90;;;;;;5058081;28;20972;-91
2021/09/05 01:49:12;;;;;;;8.40;7.53;;;13.10;99.90;;;;;;5043276;28;20908;-91
2021/09/05 01:51:38;;;;;;;10.20;9.17;;;13.20;99.90;;;;;;5059895;28;20516;-91
2021/09/05 01:54:04;;;;;;;10.87;8.57;;;13.20;99.90;;;;;;5044433;28;20180;-90
2021/09/05 01:56:34;;;;;;;11.30;10.27;;;13.30;99.90;;;;;;5062262;28;20187;-90
2021/09/05 01:59:01;;;;;;;13.60;11.80;;;13.40;99.90;;;;;;5047752;28;20561;-90
2021/09/05 02:01:28;;;;;;;11.73;10.60;;;13.30;99.90;;;;;;5061106;28;20969;-90
2021/09/05 02:03:54;;;;;;;11.90;10.80;;;13.20;99.90;;;;;;5043648;28;21035;-92
2021/09/05 02:06:20;;;;;;;11.80;10.60;;;13.20;99.90;;;;;;5056473;28;20491;-91
2021/09/05 02:08:46;;;;;;;12.37;11.20;;;13.20;99.90;;;;;;5060180;28;20199;-90
2021/09/05 02:11:12;;;;;;;10.13;9.13;;;13.10;99.90;;;;;;5058224;28;20183;-90
2021/09/05 02:13:38;;;;;;;10.37;9.27;;;13.10;99.90;;;;;;5040790;28;21257;-90
2021/09/05 02:16:03;;;;;;;9.97;9.07;;;13.00;99.90;;;;;;5042160;28;20499;-90
2021/09/05 02:18:29;;;;;;;10.00;9.10;;;13.00;99.90;;;;;;5072795;28;20222;-90
2021/09/05 02:20:55;;;;;;;10.50;9.00;;;13.00;99.90;;;;;;5059503;28;20232;-91
2021/09/05 02:23:21;;;;;;;11.40;9.70;;;13.00;99.90;;;;;;5041858;28;20192;-91
2021/09/05 02:25:47;;;;;;;9.33;8.47;;;13.00;99.90;;;;;;5042400;28;20442;-91
2021/09/05 02:28:13;;;;;;;9.97;8.97;;;13.00;99.90;;;;;;5062575;28;20187;-90
2021/09/05 02:30:38;;;;;;;9.33;8.53;;;13.00;99.90;;;;;;5073471;28;20194;-90
2021/09/05 02:33:04;;;;;;;9.50;8.70;;;13.10;99.90;;;;;;5062727;28;20194;-89
2021/09/05 02:35:30;;;;;;;9.80;8.90;;;13.10;99.90;;;;;;5041482;28;20202;-90
2021/09/05 02:37:56;;;;;;;11.83;9.50;;;13.10;99.90;;;;;;5058310;28;20458;-90
2021/09/05 02:40:22;;;;;;;9.57;8.03;;;13.00;99.90;;;;;;5060384;28;20370;-89
2021/09/05 02:42:48;;;;;;;10.70;9.37;;;12.90;99.90;;;;;;5059037;28;20191;-90
2021/09/05 02:45:13;;;;;;;10.10;8.20;;;12.90;99.90;;;;;;5056657;28;20499;-90
2021/09/05 02:47:39;;;;;;;10.50;9.50;;;12.90;99.90;;;;;;5043407;28;20195;-90
2021/09/05 02:50:08;;;;;;;9.90;8.90;;;12.90;99.90;;;;;;5056244;28;20602;-90
2021/09/05 02:52:34;;;;;;;9.90;8.80;;;12.90;99.90;;;;;;5073120;28;20186;-90
2021/09/05 02:55:00;;;;;;;9.23;8.23;;;12.90;99.90;;;;;;5042828;28;20438;-89
2021/09/05 02:57:26;;;;;;;8.63;7.73;;;12.70;99.90;;;;;;5062209;28;20213;-89
2021/09/05 02:59:51;;;;;;;10.00;9.17;;;12.60;99.90;;;;;;5043880;28;20226;-90
2021/09/05 03:02:17;;;;;;;10.13;9.13;;;12.50;99.90;;;;;;5048221;28;20537;-90
2021/09/05 03:04:43;;;;;;;9.83;8.83;;;12.50;99.90;;;;;;5042880;28;20212;-89
2021/09/05 03:07:08;;;;;;;9.30;8.50;;;12.60;99.90;;;;;;5058241;28;20194;-90
2021/09/05 03:09:34;;;;;;;11.30;10.17;;;12.80;99.90;;;;;;5055096;28;20415;-89
2021/09/05 03:12:00;;;;;;;10.70;9.53;;;12.90;99.90;;;;;;5058845;28;20641;-90
2021/09/05 03:14:26;;;;;;;10.50;9.50;;;12.90;99.90;;;;;;5045148;28;20183;-89
2021/09/05 03:16:51;;;;;;;11.30;9.80;;;12.80;99.90;;;;;;5069704;28;20176;-89
2021/09/05 03:19:17;;;;;;;10.73;9.63;;;12.70;99.90;;;;;;5039700;28;20220;-89
2021/09/05 03:21:43;;;;;;;9.50;8.57;;;12.70;99.90;;;;;;5058287;28;20216;-89
2021/09/05 03:24:08;;;;;;;11.87;9.33;;;12.80;99.90;;;;;;5058658;28;20386;-90
2021/09/05 03:26:35;;;;;;;10.83;9.53;;;12.80;99.90;;;;;;5039467;28;20194;-89
2021/09/05 03:29:01;;;;;;;9.67;8.77;;;12.80;99.90;;;;;;5057255;28;20222;-89
2021/09/05 03:31:27;;;;;;;10.10;9.20;;;12.80;99.90;;;;;;5057430;28;20450;-90
2021/09/05 03:33:53;;;;;;;10.60;9.50;;;12.80;99.90;;;;;;5075819;28;21613;-90
2021/09/05 03:36:18;;;;;;;10.60;9.60;;;12.90;99.90;;;;;;5078475;28;20863;-90
2021/09/05 03:38:44;;;;;;;12.57;9.70;;;12.90;99.90;;;;;;5053407;28;20219;-89
2021/09/05 03:41:10;;;;;;;11.47;10.27;;;12.90;99.90;;;;;;5041859;28;20553;-92
2021/09/05 03:43:35;;;;;;;10.07;8.97;;;12.90;99.90;;;;;;5036318;28;20668;-91
2021/09/05 03:46:01;;;;;;;10.43;9.43;;;12.90;99.90;;;;;;5058521;28;20719;-90
2021/09/05 03:48:27;;;;;;;10.70;9.70;;;12.90;99.90;;;;;;5074642;28;20190;-91
2021/09/05 03:50:53;;;;;;;10.83;9.50;;;12.80;99.90;;;;;;5039888;28;20183;-91
2021/09/05 03:53:18;;;;;;;13.10;9.33;;;12.70;99.90;;;;;;5066699;28;20210;-91
2021/09/05 03:55:44;;;;;;;10.93;9.83;;;12.70;99.90;;;;;;5040097;28;20439;-91
2021/09/05 03:58:09;;;;;;;10.30;9.30;;;12.70;99.90;;;;;;5040531;28;20190;-91
2021/09/05 04:00:36;;;;;;;11.53;9.47;;;12.70;99.90;;;;;;5038163;28;20323;-91
2021/09/05 04:03:02;;;;;;;12.80;9.50;;;12.70;99.90;;;;;;5058461;28;20184;-90
2021/09/05 04:05:28;;;;;;;11.70;10.53;;;12.70;99.90;;;;;;5039817;28;20450;-90
2021/09/05 04:10:33;;;;;;;11.17;9.77;;;12.70;99.90;;;;;;5038205;28;20977;-90
2021/09/05 04:13:01;;;;;;;10.90;9.80;;;12.60;99.90;;;;;;5034961;28;20800;-90
2021/09/05 04:15:29;;;;;;;14.40;10.20;;;12.60;99.90;;;;;;5038390;28;20446;-90
2021/09/05 04:17:56;;;;;;;11.07;9.97;;;12.50;99.90;;;;;;5070832;28;20583;-89
2021/09/05 04:20:22;;;;;;;12.03;10.33;;;12.50;99.90;;;;;;5054966;28;20478;-89
2021/09/05 04:22:48;;;;;;;14.37;11.40;;;12.40;99.90;;;;;;5069417;28;20434;-89
2021/09/05 04:25:15;;;;;;;13.23;10.37;;;12.50;99.90;;;;;;5041192;28;20472;-91
2021/09/05 04:27:41;;;;;;;12.13;10.47;;;12.50;99.90;;;;;;5060496;28;20196;-90
2021/09/05 04:30:11;;;;;;;10.60;9.47;;;12.40;99.90;;;;;;5040683;28;20469;-90
2021/09/05 04:32:42;;;;;;;10.10;9.10;;;12.40;99.90;;;;;;5055299;28;20507;-90
2021/09/05 04:35:10;;;;;;;11.70;10.50;;;12.40;99.90;;;;;;5070751;28;20442;-90
2021/09/05 04:37:40;;;;;;;11.30;10.13;;;12.40;99.90;;;;;;5071985;28;20451;-90
2021/09/05 04:40:06;;;;;;;10.40;9.30;;;12.40;99.90;;;;;;5049116;28;20478;-90
2021/09/05 04:42:37;;;;;;;10.30;9.30;;;12.50;99.90;;;;;;5039827;28;20460;-90
2021/09/05 04:45:15;;;;;;;11.43;9.73;;;12.50;99.90;;;;;;5041903;28;20536;-90
2021/09/05 04:47:43;;;;;;;10.27;9.30;;;12.50;99.90;;;;;;5039878;28;20470;-89
2021/09/05 04:50:10;;;;;;;11.57;10.40;;;12.50;99.90;;;;;;5051462;28;20516;-89
2021/09/05 04:52:36;;;;;;;11.07;9.93;;;12.50;99.90;;;;;;5038612;28;20566;-89
2021/09/05 04:55:03;;;;;;;12.30;10.87;;;12.50;99.90;;;;;;5057723;28;20541;-89
2021/09/05 04:57:29;;;;;;;13.17;9.63;;;12.50;99.90;;;;;;5043918;28;20294;-90
2021/09/05 04:59:55;;;;;;;11.43;10.00;;;12.40;99.90;;;;;;5051889;28;20557;-89
2021/09/05 05:02:21;;;;;;;13.73;9.90;;;12.50;99.90;;;;;;5069238;28;20983;-89
2021/09/05 05:04:47;;;;;;;12.30;10.53;;;12.60;99.90;;;;;;5035390;28;20206;-90
2021/09/05 05:07:13;;;;;;;12.50;11.30;;;12.60;99.90;;;;;;5056091;28;20187;-90
2021/09/05 05:09:43;;;;;;;11.03;9.90;;;12.60;99.90;;;;;;5036142;28;20850;-90
2021/09/05 05:12:11;;;;;;;11.43;9.67;;;12.60;99.90;;;;;;5057864;28;21874;-90
2021/09/05 05:15:02;;;;;;;10.60;9.60;;;12.70;99.90;;;;;;5033711;28;20544;-90
2021/09/05 05:17:31;;;;;;;11.70;10.50;;;12.60;99.90;;;;;;5037312;28;20458;-90
2021/09/05 05:19:59;;;;;;;12.07;10.87;;;12.60;99.90;;;;;;5053711;28;20481;-90
2021/09/05 05:22:26;;;;;;;11.60;10.37;;;12.60;99.90;;;;;;5035388;28;20969;-89
2021/09/05 05:24:53;;;;;;;12.17;11.07;;;12.60;99.90;;;;;;5033006;28;20450;-90
2021/09/05 05:27:25;;;;;;;14.23;10.90;;;12.70;99.90;;;;;;5036814;28;20450;-91
2021/09/05 05:29:51;;;;;;;11.53;10.33;;;12.70;99.90;;;;;;5036249;28;20450;-91
2021/09/05 05:32:16;;;;;;;11.50;10.20;;;12.80;99.90;;;;;;5038248;28;20447;-91
2021/09/05 05:34:42;;;;;;;11.40;9.60;;;12.80;99.90;;;;;;5055323;28;21072;-91
2021/09/05 05:37:07;;;;;;;12.27;10.50;;;12.80;99.90;;;;;;5052084;28;20234;-91
2021/09/05 05:39:33;;;;;;;11.10;10.00;;;12.80;99.90;;;;;;5033423;28;20250;-90
2021/09/05 05:41:59;;;;;;;11.40;10.30;;;12.90;99.90;;;;;;5066126;28;20191;-90
2021/09/05 05:44:24;;;;;;;11.07;9.97;;;12.90;99.90;;;;;;5038976;28;20210;-90
2021/09/05 05:46:50;;;;;;;10.40;9.33;;;12.90;99.90;;;;;;5054756;28;20199;-90
2021/09/05 05:49:15;;;;;;;10.50;9.40;;;13.00;99.90;;;;;;5041554;28;20194;-90
2021/09/05 05:51:41;;;;;;;12.17;10.53;;;13.00;99.90;;;;;;5069971;28;20184;-90
2021/09/05 05:54:07;;;;;;;12.00;10.70;;;13.00;99.90;;;;;;5057307;28;20194;-90
2021/09/05 05:56:32;;;;;;;11.97;10.80;;;13.00;99.90;;;;;;5054061;28;20638;-91
2021/09/05 05:58:58;;;;;;;11.00;9.90;;;13.10;99.90;;;;;;5041687;28;20440;-90
2021/09/05 06:01:24;;;;;;;11.70;10.60;;;13.30;99.90;;;;;;5055079;28;20195;-90
2021/09/05 06:03:50;;;;;;;11.40;10.27;;;13.40;99.90;;;;;;5037849;28;20242;-91
2021/09/05 06:06:15;;;;;;;10.63;9.73;;;13.40;99.90;;;;;;5054806;28;20847;-91
2021/09/05 06:08:57;;;;;;;14.80;9.97;;;13.40;99.90;;;;;;5031978;28;20192;-91
2021/09/05 06:11:24;;;;;;;11.63;10.43;;;13.40;99.90;;;;;;5039108;28;20188;-91
2021/09/05 06:13:50;;;;;;;12.13;10.00;;;13.30;99.90;;;;;;5052936;28;20985;-90
2021/09/05 06:16:16;;;;;;;12.60;11.40;;;13.30;99.90;;;;;;5040003;28;20473;-90
2021/09/05 06:18:41;;;;;;;11.10;10.10;;;13.40;99.90;;;;;;5040269;28;20274;-90
2021/09/05 06:21:07;;;;;;;12.90;10.63;;;13.50;99.90;;;;;;5051081;28;21923;-90
2021/09/05 06:23:33;;;;;;;11.77;10.57;;;13.70;99.90;;;;;;5041747;28;20188;-89
2021/09/05 06:25:58;;;;;;;12.77;11.47;;;13.70;99.90;;;;;;5043554;28;20290;-90
2021/09/05 06:28:24;;;;;;;12.53;11.20;;;13.70;99.90;;;;;;5072874;28;20193;-89
2021/09/05 06:30:49;;;;;;;11.23;10.17;;;13.70;99.90;;;;;;5055258;28;20229;-90
2021/09/05 06:33:18;;;;;;;11.10;10.00;;;13.80;99.90;;;;;;5055711;28;20195;-91
2021/09/05 06:35:49;;;;;;;11.30;10.10;;;13.80;99.90;;;;;;5042185;28;20188;-90
2021/09/05 06:38:25;;;;;;;11.17;10.07;;;13.80;99.90;;;;;;5041528;28;20446;-90
2021/09/05 06:40:51;;;;;;;12.40;11.03;;;13.90;99.90;;;;;;5041974;28;20818;-90
2021/09/05 06:43:17;;;;;;;11.90;10.80;;;13.90;99.90;;;;;;5054338;28;20187;-89
2021/09/05 06:45:43;;;;;;;11.77;10.50;;;13.80;99.90;;;;;;5060866;28;20549;-88
2021/09/05 06:48:08;;;;;;;10.67;9.67;;;13.90;99.90;;;;;;5056060;28;20212;-88
2021/09/05 06:50:34;;;;;;;12.73;10.30;;;13.90;99.90;;;;;;5054967;28;20478;-91
2021/09/05 06:53:03;;;;;;;11.33;10.13;;;14.00;99.90;;;;;;5055226;28;20425;-90
2021/09/05 06:55:28;;;;;;;11.10;10.00;;;14.30;99.90;;;;;;5072535;28;20632;-89
2021/09/05 06:57:59;;;;;;;11.20;10.13;;;14.40;99.90;;;;;;5044736;28;20657;-90
2021/09/05 07:00:25;;;;;;;11.03;9.77;;;14.50;99.90;;;;;;5040481;28;20512;-90
2021/09/05 07:02:54;;;;;;;13.23;10.03;;;14.70;99.90;;;;;;5040056;28;20466;-91
2021/09/05 07:08:00;;;;;;;11.27;10.17;;;15.10;99.90;;;;;;5039429;28;20461;-92
2021/09/05 07:10:29;;;;;;;10.67;9.33;;;15.30;99.90;;;;;;5079187;28;20482;-91
2021/09/05 07:12:54;;;;;;;11.73;9.80;;;15.50;99.90;;;;;;5058212;28;20187;-90
2021/09/05 07:15:20;;;;;;;10.10;9.10;;;15.60;99.90;;;;;;5062647;28;20457;-90
2021/09/05 07:17:46;;;;;;;11.23;10.13;;;15.70;99.90;;;;;;5042088;28;20199;-90
2021/09/05 07:20:12;;;;;;;10.37;9.37;;;15.70;99.90;;;;;;5057733;28;20191;-91
2021/09/05 07:22:39;;;;;;;11.43;10.33;;;15.80;99.90;;;;;;5073661;28;20198;-92
2021/09/05 07:25:07;;;;;;;11.63;9.90;;;15.90;99.90;;;;;;5059349;28;20537;-90
2021/09/05 07:27:32;;;;;;;10.67;9.57;;;16.10;99.90;;;;;;5049316;28;20442;-90
2021/09/05 07:29:58;;;;;;;10.47;9.57;;;16.30;99.90;;;;;;5050747;28;20493;-90
2021/09/05 07:32:24;;;;;;;10.00;8.97;;;16.50;99.90;;;;;;5044547;28;20734;-92
2021/09/05 07:35:08;;;;;;;9.10;8.30;;;16.60;99.90;;;;;;5044412;28;20191;-92
2021/09/05 07:37:34;;;;;;;11.10;10.00;;;16.80;99.90;;;;;;5075095;28;20273;-92
2021/09/05 07:39:59;;;;;;;9.83;8.90;;;17.00;99.90;;;;;;5057329;28;20479;-90
2021/09/05 07:42:26;;;;;;;10.00;9.00;;;17.20;99.90;;;;;;5075398;28;20437;-92
2021/09/05 07:44:53;;;;;;;10.27;9.20;;;17.30;99.90;;;;;;5040543;28;20202;-93
2021/09/05 07:47:19;;;;;;;9.83;8.90;;;17.30;99.90;;;;;;5042908;28;20542;-91
2021/09/05 07:49:45;;;;;;;10.33;9.33;;;17.40;99.90;;;;;;5042277;28;20486;-92
2021/09/05 07:52:10;;;;;;;10.10;9.10;;;17.40;99.90;;;;;;5037642;28;20456;-89
2021/09/05 07:54:36;;;;;;;9.97;9.07;;;17.50;99.90;;;;;;5038390;28;20231;-90
2021/09/05 07:57:02;;;;;;;9.90;9.00;;;17.50;99.90;;;;;;5034075;28;20653;-90
2021/09/05 07:59:27;;;;;;;9.43;8.63;;;17.70;99.90;;;;;;5034170;28;21300;-91
2021/09/05 08:01:53;;;;;;;9.40;8.50;;;18.00;99.90;;;;;;5039202;28;20257;-91
2021/09/05 08:04:19;;;;;;;10.17;8.70;;;18.20;99.90;;;;;;5039540;28;20188;-92
2021/09/05 08:06:44;;;;;;;10.17;9.20;;;18.40;99.90;;;;;;5057321;28;20248;-91
2021/09/05 08:09:11;;;;;;;9.77;7.90;;;18.40;99.90;;;;;;5057879;28;20247;-91
2021/09/05 08:11:37;;;;;;;8.37;7.67;;;18.50;99.90;;;;;;5051404;28;20608;-93
2021/09/05 08:14:04;;;;;;;9.90;9.00;;;18.70;99.90;;;;;;5041141;28;20446;-92
2021/09/05 08:16:37;;;;;;;8.87;8.07;;;18.80;99.90;;;;;;5036416;28;20445;-92
2021/09/05 08:19:06;;;;;;;9.07;8.17;;;19.00;99.90;;;;;;5039294;28;20208;-93
2021/09/05 08:21:32;;;;;;;9.63;8.73;;;19.20;99.90;;;;;;5043196;28;20446;-93
2021/09/05 08:23:58;;;;;;;9.60;8.80;;;19.00;99.90;;;;;;5037343;28;20574;-93
2021/09/05 08:26:26;;;;;;;8.87;8.07;;;18.80;99.90;;;;;;5041867;28;20533;-93
2021/09/05 08:28:52;;;;;;;9.37;8.47;;;18.80;99.90;;;;;;5053733;28;20314;-94
2021/09/05 08:31:19;;;;;;;8.33;7.60;;;19.10;99.90;;;;;;5041026;28;20442;-94
2021/09/05 08:33:45;;;;;;;9.20;8.40;;;19.40;99.90;;;;;;5043041;28;21069;-95
2021/09/05 08:36:11;;;;;;;8.90;7.70;;;19.70;99.90;;;;;;5073026;28;20464;-93
2021/09/05 08:38:37;;;;;;;8.30;7.50;;;19.90;99.90;;;;;;5053144;28;20466;-93
2021/09/05 08:41:03;;;;;;;8.57;7.77;;;20.10;99.90;;;;;;5053018;28;20205;-96
2021/09/05 08:43:42;;;;;;;7.07;6.57;;;20.10;99.90;;;;;;5051258;28;20768;-93
2021/09/05 08:46:08;;;;;;;7.80;7.10;;;20.40;99.90;;;;;;5048889;28;20441;-91
2021/09/05 08:48:35;;;;;;;8.37;7.63;;;20.30;99.90;;;;;;5036659;28;20512;-91
2021/09/05 08:51:01;;;;;;;8.53;7.70;;;20.40;99.90;;;;;;5034055;28;20982;-91
2021/09/05 08:53:26;;;;;;;7.90;7.20;;;20.50;99.90;;;;;;5051101;28;20964;-93
2021/09/05 08:55:52;;;;;;;8.53;7.73;;;20.40;99.90;;;;;;5035608;28;20195;-92
2021/09/05 09:08:38;;;;;;;7.13;6.43;;;21.70;99.90;;;;;;4932500;28;20486;-88
2021/09/05 09:11:04;;;;;;;7.30;6.60;;;21.70;99.90;;;;;;4930611;28;20462;-91
2021/09/05 09:13:38;;;;;;;7.40;6.70;;;22.00;99.90;;;;;;4930845;28;20183;-86
2021/09/05 09:16:14;;;;;;;6.90;6.30;;;22.10;99.90;;;;;;4933662;28;20666;-88
2021/09/05 09:18:43;;;;;;;7.70;6.90;;;22.10;99.90;;;;;;4948590;28;20465;-87
2021/09/05 09:21:11;;;;;;;6.80;6.20;;;22.30;99.90;;;;;;4949400;28;20459;-87
2021/09/05 09:23:39;;;;;;;6.77;6.17;;;22.60;99.90;;;;;;4931133;28;20517;-88
2021/09/05 09:26:11;;;;;;;6.63;6.13;;;22.80;99.90;;;;;;4951434;28;20805;-89
2021/09/05 09:28:48;;;;;;;7.33;6.63;;;22.80;99.90;;;;;;4926185;28;20443;-87
2021/09/05 09:31:22;;;;;;;7.33;6.73;;;23.00;99.90;;;;;;4947244;28;20522;-87
2021/09/05 09:33:58;;;;;;;7.50;5.97;;;23.10;99.90;;;;;;4947937;28;20481;-88
2021/09/05 09:36:29;;;;;;;6.90;6.40;;;23.20;99.80;;;;;;4949681;28;20489;-87
2021/09/05 09:39:04;;;;;;;6.80;6.23;;;23.50;99.50;;;;;;4932133;28;20614;-91
2021/09/05 09:41:32;;;;;;;7.00;6.30;;;23.70;98.90;;;;;;4949550;28;20453;-89
2021/09/05 09:44:03;;;;;;;7.83;7.13;;;23.80;98.90;;;;;;4930561;28;20455;-90
2021/09/05 09:46:31;;;;;;;6.50;6.00;;;24.00;98.30;;;;;;4948034;28;20525;-88
2021/09/05 09:49:11;;;;;;;6.70;6.20;;;24.00;97.50;;;;;;4949535;28;20473;-88
2021/09/05 09:51:38;;;;;;;8.13;7.53;;;24.10;97.10;;;;;;4935411;28;20474;-86
2021/09/05 09:54:10;;;;;;;6.73;6.20;;;24.00;98.20;;;;;;4952817;28;20496;-92
2021/09/05 09:56:37;;;;;;;11.83;10.70;;;23.90;97.40;;;;;;4948228;28;20454;-92
2021/09/05 09:59:06;;;;;;;10.40;9.40;;;24.10;98.20;;;;;;4945087;28;20553;-93
2021/09/05 10:01:33;;;;;;;12.33;11.40;;;24.30;97.20;;;;;;4945125;28;20439;-93
2021/09/05 10:04:02;;;;;;;6.90;6.40;;;24.20;96.00;;;;;;4960007;28;20778;-94
2021/09/05 10:06:32;;;;;;;5.83;5.33;;;24.20;95.40;;;;;;4960984;28;20459;-92
2021/09/05 10:09:05;;;;;;;7.50;6.90;;;24.20;97.10;;;;;;4960540;28;20454;-92
2021/09/05 10:11:32;;;;;;;6.80;6.20;;;24.50;95.80;;;;;;4963563;28;20462;-92
2021/09/05 10:13:58;;;;;;;6.80;5.30;;;24.80;95.20;;;;;;4958226;28;20443;-91
2021/09/05 10:16:27;;;;;;;5.53;5.13;;;25.00;95.50;;;;;;4948582;28;20451;-96
2021/09/05 10:19:01;;;;;;;6.40;5.90;;;25.40;93.60;;;;;;4935050;28;20466;-88
2021/09/05 10:21:27;;;;;;;5.70;5.10;;;25.80;94.10;;;;;;4948745;28;20457;-90
2021/09/05 10:24:46;;;;;;;6.30;5.80;;;25.90;93.60;;;;;;4936656;28;20514;-90
2021/09/05 10:27:13;;;;;;;5.80;5.30;;;26.10;92.80;;;;;;4931029;28;20581;-90
2021/09/05 10:30:08;;;;;;;6.50;6.00;;;26.80;90.00;;;;;;4948585;28;20578;-87
2021/09/05 10:32:51;;;;;;;6.50;6.00;;;26.60;90.90;;;;;;4938351;28;20447;-85
2021/09/05 10:35:30;;;;;;;7.17;6.47;;;26.20;93.50;;;;;;4939029;28;20444;-86
2021/09/05 10:38:18;;;;;;;6.93;6.33;;;25.40;92.20;;;;;;4951158;28;20442;-86
2021/09/05 10:41:06;;;;;;;7.13;6.53;;;25.20;93.40;;;;;;4940563;28;20449;-85
2021/09/05 10:43:51;;;;;;;4.93;4.63;;;25.30;92.30;;;;;;4935812;28;20443;-85
2021/09/05 10:46:29;;;;;;;6.17;5.60;;;25.70;92.90;;;;;;4932366;28;20487;-85
2021/09/05 10:49:03;;;;;;;6.53;6.03;;;26.20;94.00;;;;;;4946903;28;20902;-85
2021/09/05 10:51:54;;;;;;;5.97;5.47;;;25.90;92.80;;;;;;4936314;28;20814;-86
2021/09/05 10:54:25;;;;;;;6.60;5.90;;;25.80;92.90;;;;;;4924220;28;20538;-84
2021/09/05 10:56:52;;;;;;;6.00;5.50;;;25.80;91.30;;;;;;4938850;28;20450;-85
2021/09/05 10:59:25;;;;;;;6.27;5.40;;;26.00;91.10;;;;;;4932858;28;20473;-85
2021/09/05 11:01:54;;;;;;;5.37;4.97;;;26.50;89.80;;;;;;4945549;28;20446;-85
2021/09/05 11:04:25;;;;;;;5.20;4.80;;;26.30;88.20;;;;;;4951130;28;20442;-86
2021/09/05 11:07:36;;;;;;;5.73;5.23;;;26.30;90.00;;;;;;4944308;28;20195;-86
2021/09/05 11:10:02;;;;;;;5.80;5.40;;;26.10;90.20;;;;;;4896964;29;20474;-86
2021/09/05 11:12:41;;;;;;;5.57;5.07;;;26.40;88.50;;;;;;4940246;28;20480;-85
2021/09/05 11:15:10;;;;;;;5.40;4.90;;;26.30;90.20;;;;;;4956005;28;20460;-86
2021/09/05 11:17:36;;;;;;;6.77;5.90;;;26.20;92.10;;;;;;4938368;28;20462;-86
2021/09/05 11:20:12;;;;;;;7.77;5.90;;;26.50;87.30;;;;;;4957190;28;20454;-86
2021/09/05 11:22:49;;;;;;;6.33;5.73;;;26.90;91.50;;;;;;4952525;28;20563;-86
2021/09/05 11:25:30;;;;;;;6.20;5.70;;;26.50;90.60;;;;;;4957089;28;20476;-86
2021/09/05 11:27:59;;;;;;;6.33;5.70;;;26.40;91.10;;;;;;4939362;28;20956;-85
2021/09/05 11:30:34;;;;;;;5.70;5.30;;;26.30;91.00;;;;;;4938814;28;20486;-85
2021/09/05 11:33:08;;;;;;;6.47;5.90;;;26.30;91.20;;;;;;4951991;28;20823;-86
2021/09/05 11:35:53;;;;;;;6.40;5.90;;;26.50;85.40;;;;;;4940068;28;20545;-86
2021/09/05 11:38:19;;;;;;;5.80;5.33;;;26.70;89.60;;;;;;4954586;28;20438;-86
2021/09/05 11:40:58;;;;;;;6.57;5.70;;;26.60;90.20;;;;;;4957355;28;20805;-86
2021/09/05 11:43:39;;;;;;;7.87;5.90;;;26.60;89.20;;;;;;4952876;28;20796;-86
2021/09/05 11:46:09;;;;;;;5.83;5.33;;;26.60;91.00;;;;;;4956955;28;20446;-85
2021/09/05 11:48:36;;;;;;;6.53;5.93;;;26.60;88.00;;;;;;4952598;28;20557;-86
2021/09/05 11:51:03;;;;;;;5.57;5.17;;;26.30;89.80;;;;;;4938890;28;20507;-85
2021/09/05 11:53:29;;;;;;;5.17;4.77;;;26.50;88.30;;;;;;4938886;28;20982;-86
2021/09/05 11:55:55;;;;;;;6.30;5.80;;;26.50;89.20;;;;;;4955778;28;20455;-86
2021/09/05 11:58:21;;;;;;;6.30;5.80;;;26.30;90.50;;;;;;4939290;28;20285;-85
2021/09/05 12:00:54;;;;;;;6.33;5.80;;;26.60;88.90;;;;;;4955279;28;20498;-85
2021/09/05 12:03:29;;;;;;;5.97;5.47;;;26.90;81.90;;;;;;4950813;28;20463;-86
2021/09/05 12:05:55;;;;;;;5.33;4.87;;;27.50;84.20;;;;;;4957334;28;20454;-86
2021/09/05 12:08:24;;;;;;;5.77;5.27;;;27.90;81.90;;;;;;4943201;28;20495;-86
2021/09/05 12:11:07;;;;;;;5.20;4.80;;;28.10;79.90;;;;;;4939788;28;20484;-86
2021/09/05 12:13:55;;;;;;;6.43;5.93;;;28.40;73.20;;;;;;4956205;28;20450;-86
2021/09/05 12:16:30;;;;;;;5.60;4.97;;;28.30;79.40;;;;;;4935349;29;20821;-86
2021/09/05 12:19:00;;;;;;;5.60;5.10;;;28.40;77.70;;;;;;4940192;28;20446;-86
2021/09/05 12:21:38;;;;;;;5.80;5.40;;;28.50;74.00;;;;;;4949294;28;23538;-85
2021/09/05 12:24:15;;;;;;;6.50;5.47;;;28.20;75.30;;;;;;4934674;28;20485;-85
2021/09/05 12:26:40;;;;;;;4.70;4.40;;;27.90;77.40;;;;;;4939758;28;20943;-85
2021/09/05 12:29:06;;;;;;;5.10;4.70;;;27.50;76.30;;;;;;4939874;28;20481;-84
2021/09/05 12:31:48;;;;;;;6.23;5.50;;;27.00;74.30;;;;;;4952527;28;20301;-86
2021/09/05 12:34:44;;;;;;;5.67;5.17;;;26.60;74.10;;;;;;4937233;28;20446;-86
2021/09/05 12:37:19;;;;;;;5.73;5.23;;;27.50;79.40;;;;;;4955123;28;20493;-86
2021/09/05 12:39:54;;;;;;;5.10;4.70;;;28.30;76.10;;;;;;4951778;28;20494;-85
2021/09/05 12:42:20;;;;;;;5.30;4.80;;;27.70;71.40;;;;;;4957087;28;20446;-85
2021/09/05 12:44:49;;;;;;;4.93;4.40;;;27.00;72.50;;;;;;4934719;28;22201;-85
2021/09/05 12:47:30;;;;;;;5.53;5.13;;;26.80;73.00;;;;;;4941940;28;20465;-86
2021/09/05 12:49:57;;;;;;;4.83;4.43;;;26.70;73.90;;;;;;4936107;28;20470;-86
2021/09/05 12:52:27;;;;;;;5.60;4.67;;;27.70;76.50;;;;;;4952232;28;20541;-86
2021/09/05 12:54:53;;;;;;;5.27;4.87;;;28.50;75.90;;;;;;4939563;28;20450;-86
2021/09/05 12:57:19;;;;;;;5.20;4.80;;;29.00;71.90;;;;;;4951297;28;20841;-85
2021/09/05 12:59:45;;;;;;;4.83;4.43;;;28.10;65.70;;;;;;4934237;28;20196;-86
2021/09/05 13:02:12;;;;;;;4.33;3.93;;;27.80;74.30;;;;;;4949304;28;20805;-85
2021/09/05 13:04:39;;;;;;;4.63;4.33;;;28.20;71.80;;;;;;4937112;28;23637;-86
2021/09/05 13:07:05;;;;;;;4.80;3.80;;;28.30;66.10;;;;;;4935168;28;21012;-86